sensor_id;sensor_type;location;lat;lon;timestamp;temperature;humidity
22781;DHT22;11557;50.884;4.322;2022-12-29T00:01:40;11.80;99.90
22781;DHT22;11557;50.884;4.322;2022-12-29T00:04:06;11.80;99.90
22781;DHT22;11557;50.884;4.322;2022-12-29T00:06:32;11.80;99.90
22781;DHT22;11557;50.884;4.322;2022-12-29T00:08:58;11.90;99.90
22781;DHT22;11557;50.884;4.322;2022-12-29T00:11:25;11.90;99.90
22781;DHT22;11557;50.884;4.322;2022-12-29T00:13:52;12.00;99.90
22781;DHT22;11557;50.884;4.322;2022-12-29T00:16:37;12.00;99.90
22781;DHT22;11557;50.884;4.322;2022-12-29T00:19:04;12.00;99.90
22781;DHT22;11557;50.884;4.322;2022-12-29T00:21:30;11.90;99.90
22781;DHT22;11557;50.884;4.322;2022-12-29T00:24:19;11.90;99.90
22781;DHT22;11557;50.884;4.322;2022-12-29T00:27:09;11.90;99.90
22781;DHT22;11557;50.884;4.322;2022-12-29T00:29:54;11.90;99.90
22781;DHT22;11557;50.884;4.322;2022-12-29T00:32:38;11.90;99.90
22781;DHT22;11557;50.884;4.322;2022-12-29T00:35:45;11.90;99.90
22781;DHT22;11557;50.884;4.322;2022-12-29T00:38:12;12.00;99.90
22781;DHT22;11557;50.884;4.322;2022-12-29T00:40:57;12.10;99.90
22781;DHT22;11557;50.884;4.322;2022-12-29T00:43:41;12.20;99.90
22781;DHT22;11557;50.884;4.322;2022-12-29T00:46:25;12.10;99.90
22781;DHT22;11557;50.884;4.322;2022-12-29T00:48:50;12.20;99.90
22781;DHT22;11557;50.884;4.322;2022-12-29T00:51:35;12.20;99.90
22781;DHT22;11557;50.884;4.322;2022-12-29T00:54:01;12.20;99.90
22781;DHT22;11557;50.884;4.322;2022-12-29T00:56:26;12.20;99.90
22781;DHT22;11557;50.884;4.322;2022-12-29T00:58:52;12.20;99.90
22781;DHT22;11557;50.884;4.322;2022-12-29T01:01:18;12.20;99.90
22781;DHT22;11557;50.884;4.322;2022-12-29T01:03:43;12.20;99.90
22781;DHT22;11557;50.884;4.322;2022-12-29T01:06:10;12.20;99.90
22781;DHT22;11557;50.884;4.322;2022-12-29T01:08:37;12.20;99.90
22781;DHT22;11557;50.884;4.322;2022-12-29T01:11:06;12.20;99.90
22781;DHT22;11557;50.884;4.322;2022-12-29T01:13:32;12.20;99.90
22781;DHT22;11557;50.884;4.322;2022-12-29T01:15:58;12.30;99.90
22781;DHT22;11557;50.884;4.322;2022-12-29T01:18:25;12.20;99.90
22781;DHT22;11557;50.884;4.322;2022-12-29T01:20:57;12.40;99.90
22781;DHT22;11557;50.884;4.322;2022-12-29T01:23:23;12.20;99.90
22781;DHT22;11557;50.884;4.322;2022-12-29T01:25:48;12.20;99.90
22781;DHT22;11557;50.884;4.322;2022-12-29T01:28:14;12.10;99.90
22781;DHT22;11557;50.884;4.322;2022-12-29T01:30:40;12.10;99.90
22781;DHT22;11557;50.884;4.322;2022-12-29T01:33:05;12.00;99.90
22781;DHT22;11557;50.884;4.322;2022-12-29T01:35:31;12.00;99.90
22781;DHT22;11557;50.884;4.322;2022-12-29T01:37:57;12.00;99.90
22781;DHT22;11557;50.884;4.322;2022-12-29T01:40:23;11.80;99.90
22781;DHT22;11557;50.884;4.322;2022-12-29T01:42:49;11.80;99.90
22781;DHT22;11557;50.884;4.322;2022-12-29T01:45:16;11.80;99.90
22781;DHT22;11557;50.884;4.322;2022-12-29T01:48:00;11.70;99.90
22781;DHT22;11557;50.884;4.322;2022-12-29T01:50:33;11.70;99.90
22781;DHT22;11557;50.884;4.322;2022-12-29T01:53:16;11.70;99.90
22781;DHT22;11557;50.884;4.322;2022-12-29T01:55:48;11.70;99.90
22781;DHT22;11557;50.884;4.322;2022-12-29T01:58:16;11.60;99.90
22781;DHT22;11557;50.884;4.322;2022-12-29T02:00:43;11.60;99.90
22781;DHT22;11557;50.884;4.322;2022-12-29T02:03:09;11.60;99.90
22781;DHT22;11557;50.884;4.322;2022-12-29T02:05:45;11.60;99.90
22781;DHT22;11557;50.884;4.322;2022-12-29T02:08:13;11.80;99.90
22781;DHT22;11557;50.884;4.322;2022-12-29T02:10:39;11.70;99.90
22781;DHT22;11557;50.884;4.322;2022-12-29T02:13:06;11.70;99.90
22781;DHT22;11557;50.884;4.322;2022-12-29T02:18:41;11.50;99.90
22781;DHT22;11557;50.884;4.322;2022-12-29T02:37:24;10.80;99.90
22781;DHT22;11557;50.884;4.322;2022-12-29T02:43:05;10.80;99.90
22781;DHT22;11557;50.884;4.322;2022-12-29T02:45:45;10.70;99.90
22781;DHT22;11557;50.884;4.322;2022-12-29T02:51:04;10.80;99.90
22781;DHT22;11557;50.884;4.322;2022-12-29T02:53:33;10.90;99.90
22781;DHT22;11557;50.884;4.322;2022-12-29T02:56:19;11.00;99.90
22781;DHT22;11557;50.884;4.322;2022-12-29T02:58:44;10.90;99.90
22781;DHT22;11557;50.884;4.322;2022-12-29T03:06:52;10.80;99.90
22781;DHT22;11557;50.884;4.322;2022-12-29T03:15:02;10.60;99.90
22781;DHT22;11557;50.884;4.322;2022-12-29T03:18:21;10.60;99.90
22781;DHT22;11557;50.884;4.322;2022-12-29T03:20:55;10.50;99.90
22781;DHT22;11557;50.884;4.322;2022-12-29T03:23:23;10.40;99.90
22781;DHT22;11557;50.884;4.322;2022-12-29T03:25:56;10.40;99.90
22781;DHT22;11557;50.884;4.322;2022-12-29T03:28:33;10.50;99.90
22781;DHT22;11557;50.884;4.322;2022-12-29T03:31:03;10.70;99.90
22781;DHT22;11557;50.884;4.322;2022-12-29T03:33:30;10.60;99.90
22781;DHT22;11557;50.884;4.322;2022-12-29T03:36:01;10.60;99.90
22781;DHT22;11557;50.884;4.322;2022-12-29T03:38:35;10.70;99.90
22781;DHT22;11557;50.884;4.322;2022-12-29T03:41:04;10.70;99.90
22781;DHT22;11557;50.884;4.322;2022-12-29T03:43:32;10.80;99.90
22781;DHT22;11557;50.884;4.322;2022-12-29T03:45:58;10.80;99.90
22781;DHT22;11557;50.884;4.322;2022-12-29T03:48:24;10.80;99.90
22781;DHT22;11557;50.884;4.322;2022-12-29T03:50:50;10.90;99.90
22781;DHT22;11557;50.884;4.322;2022-12-29T03:53:15;10.90;99.90
22781;DHT22;11557;50.884;4.322;2022-12-29T03:55:41;10.90;99.90
22781;DHT22;11557;50.884;4.322;2022-12-29T03:58:07;11.00;99.90
22781;DHT22;11557;50.884;4.322;2022-12-29T04:00:32;10.90;99.90
22781;DHT22;11557;50.884;4.322;2022-12-29T04:02:58;10.90;99.90
22781;DHT22;11557;50.884;4.322;2022-12-29T04:05:23;11.00;99.90
22781;DHT22;11557;50.884;4.322;2022-12-29T04:07:49;10.90;99.90
22781;DHT22;11557;50.884;4.322;2022-12-29T04:10:15;11.00;99.90
22781;DHT22;11557;50.884;4.322;2022-12-29T04:12:40;10.90;99.90
22781;DHT22;11557;50.884;4.322;2022-12-29T04:15:08;10.80;99.90
22781;DHT22;11557;50.884;4.322;2022-12-29T04:17:33;10.80;99.90
22781;DHT22;11557;50.884;4.322;2022-12-29T04:19:59;10.80;99.90
22781;DHT22;11557;50.884;4.322;2022-12-29T04:22:43;10.80;99.90
22781;DHT22;11557;50.884;4.322;2022-12-29T04:25:09;11.10;99.90
22781;DHT22;11557;50.884;4.322;2022-12-29T04:27:35;10.80;99.90
22781;DHT22;11557;50.884;4.322;2022-12-29T04:30:00;10.90;99.90
22781;DHT22;11557;50.884;4.322;2022-12-29T04:32:26;10.80;99.90
22781;DHT22;11557;50.884;4.322;2022-12-29T04:34:51;10.80;99.90
22781;DHT22;11557;50.884;4.322;2022-12-29T04:37:17;10.90;99.90
22781;DHT22;11557;50.884;4.322;2022-12-29T04:39:43;10.80;99.90
22781;DHT22;11557;50.884;4.322;2022-12-29T04:42:08;10.80;99.90
22781;DHT22;11557;50.884;4.322;2022-12-29T04:44:34;11.00;99.90
22781;DHT22;11557;50.884;4.322;2022-12-29T04:47:00;10.80;99.90
22781;DHT22;11557;50.884;4.322;2022-12-29T04:49:26;10.90;99.90
22781;DHT22;11557;50.884;4.322;2022-12-29T04:51:52;10.80;99.90
22781;DHT22;11557;50.884;4.322;2022-12-29T04:54:17;10.90;99.90
22781;DHT22;11557;50.884;4.322;2022-12-29T04:56:43;10.70;99.90
22781;DHT22;11557;50.884;4.322;2022-12-29T04:59:09;10.70;99.90
22781;DHT22;11557;50.884;4.322;2022-12-29T05:01:34;10.70;99.90
22781;DHT22;11557;50.884;4.322;2022-12-29T05:04:00;10.80;99.90
22781;DHT22;11557;50.884;4.322;2022-12-29T05:06:25;10.90;99.90
22781;DHT22;11557;50.884;4.322;2022-12-29T05:08:51;10.90;99.90
22781;DHT22;11557;50.884;4.322;2022-12-29T05:11:16;11.10;99.90
22781;DHT22;11557;50.884;4.322;2022-12-29T05:13:45;10.80;99.90
22781;DHT22;11557;50.884;4.322;2022-12-29T05:16:11;10.80;99.90
22781;DHT22;11557;50.884;4.322;2022-12-29T05:18:37;10.90;99.90
22781;DHT22;11557;50.884;4.322;2022-12-29T05:21:02;10.90;99.90
22781;DHT22;11557;50.884;4.322;2022-12-29T05:23:28;11.00;99.90
22781;DHT22;11557;50.884;4.322;2022-12-29T05:25:54;11.10;99.90
22781;DHT22;11557;50.884;4.322;2022-12-29T05:28:19;11.20;99.90
22781;DHT22;11557;50.884;4.322;2022-12-29T05:30:48;11.10;99.90
22781;DHT22;11557;50.884;4.322;2022-12-29T05:33:15;11.00;99.90
22781;DHT22;11557;50.884;4.322;2022-12-29T05:35:40;11.00;99.90
22781;DHT22;11557;50.884;4.322;2022-12-29T05:38:06;11.00;99.90
22781;DHT22;11557;50.884;4.322;2022-12-29T05:40:32;11.00;99.90
22781;DHT22;11557;50.884;4.322;2022-12-29T05:42:57;11.20;99.90
22781;DHT22;11557;50.884;4.322;2022-12-29T05:45:23;11.10;99.90
22781;DHT22;11557;50.884;4.322;2022-12-29T05:47:48;11.10;99.90
22781;DHT22;11557;50.884;4.322;2022-12-29T05:50:14;11.10;99.90
22781;DHT22;11557;50.884;4.322;2022-12-29T05:52:40;11.00;99.90
22781;DHT22;11557;50.884;4.322;2022-12-29T05:55:06;10.90;99.90
22781;DHT22;11557;50.884;4.322;2022-12-29T05:57:31;11.00;99.90
22781;DHT22;11557;50.884;4.322;2022-12-29T05:59:57;11.00;99.90
22781;DHT22;11557;50.884;4.322;2022-12-29T06:02:23;11.00;99.90
22781;DHT22;11557;50.884;4.322;2022-12-29T06:04:48;11.00;99.90
22781;DHT22;11557;50.884;4.322;2022-12-29T06:07:14;11.00;99.90
22781;DHT22;11557;50.884;4.322;2022-12-29T06:09:39;11.00;99.90
22781;DHT22;11557;50.884;4.322;2022-12-29T06:12:05;10.90;99.90
22781;DHT22;11557;50.884;4.322;2022-12-29T06:14:31;10.90;99.90
22781;DHT22;11557;50.884;4.322;2022-12-29T06:16:57;10.90;99.90
22781;DHT22;11557;50.884;4.322;2022-12-29T06:19:22;10.90;99.90
22781;DHT22;11557;50.884;4.322;2022-12-29T06:21:48;10.80;99.90
22781;DHT22;11557;50.884;4.322;2022-12-29T06:24:13;10.90;99.90
22781;DHT22;11557;50.884;4.322;2022-12-29T06:26:39;10.90;99.90
22781;DHT22;11557;50.884;4.322;2022-12-29T06:29:06;10.80;99.90
22781;DHT22;11557;50.884;4.322;2022-12-29T06:31:33;10.90;99.90
22781;DHT22;11557;50.884;4.322;2022-12-29T06:33:59;10.80;99.90
22781;DHT22;11557;50.884;4.322;2022-12-29T06:36:24;10.90;99.90
22781;DHT22;11557;50.884;4.322;2022-12-29T06:38:50;10.90;99.90
22781;DHT22;11557;50.884;4.322;2022-12-29T06:41:18;10.90;99.90
22781;DHT22;11557;50.884;4.322;2022-12-29T06:43:45;10.90;99.90
22781;DHT22;11557;50.884;4.322;2022-12-29T06:46:10;11.10;99.90
22781;DHT22;11557;50.884;4.322;2022-12-29T06:48:36;11.10;99.90
22781;DHT22;11557;50.884;4.322;2022-12-29T06:51:02;11.00;99.90
22781;DHT22;11557;50.884;4.322;2022-12-29T06:53:27;11.10;99.90
22781;DHT22;11557;50.884;4.322;2022-12-29T06:55:53;11.60;99.90
22781;DHT22;11557;50.884;4.322;2022-12-29T06:58:19;11.10;99.90
22781;DHT22;11557;50.884;4.322;2022-12-29T07:00:44;11.00;99.90
22781;DHT22;11557;50.884;4.322;2022-12-29T07:03:10;11.20;99.90
22781;DHT22;11557;50.884;4.322;2022-12-29T07:05:36;11.00;99.90
22781;DHT22;11557;50.884;4.322;2022-12-29T07:08:01;11.10;99.90
22781;DHT22;11557;50.884;4.322;2022-12-29T07:10:28;11.20;99.90
22781;DHT22;11557;50.884;4.322;2022-12-29T07:12:54;11.10;99.90
22781;DHT22;11557;50.884;4.322;2022-12-29T07:15:19;11.10;99.90
22781;DHT22;11557;50.884;4.322;2022-12-29T07:17:45;11.00;99.90
22781;DHT22;11557;50.884;4.322;2022-12-29T07:20:10;11.10;99.90
22781;DHT22;11557;50.884;4.322;2022-12-29T07:22:36;11.10;99.90
22781;DHT22;11557;50.884;4.322;2022-12-29T07:25:02;11.10;99.90
22781;DHT22;11557;50.884;4.322;2022-12-29T07:27:28;11.10;99.90
22781;DHT22;11557;50.884;4.322;2022-12-29T07:29:54;11.20;99.90
22781;DHT22;11557;50.884;4.322;2022-12-29T07:32:20;11.10;99.90
22781;DHT22;11557;50.884;4.322;2022-12-29T07:34:45;11.10;99.90
22781;DHT22;11557;50.884;4.322;2022-12-29T07:37:14;11.10;99.90
22781;DHT22;11557;50.884;4.322;2022-12-29T07:39:39;11.20;99.90
22781;DHT22;11557;50.884;4.322;2022-12-29T07:42:05;11.20;99.90
22781;DHT22;11557;50.884;4.322;2022-12-29T07:44:31;11.10;99.90
22781;DHT22;11557;50.884;4.322;2022-12-29T07:46:56;11.10;99.90
22781;DHT22;11557;50.884;4.322;2022-12-29T07:49:22;11.10;99.90
22781;DHT22;11557;50.884;4.322;2022-12-29T07:51:48;11.20;99.90
22781;DHT22;11557;50.884;4.322;2022-12-29T07:54:13;11.20;99.90
22781;DHT22;11557;50.884;4.322;2022-12-29T07:56:39;11.30;99.90
22781;DHT22;11557;50.884;4.322;2022-12-29T07:59:04;11.10;99.90
22781;DHT22;11557;50.884;4.322;2022-12-29T08:01:30;11.10;99.90
22781;DHT22;11557;50.884;4.322;2022-12-29T08:03:56;11.00;99.90
22781;DHT22;11557;50.884;4.322;2022-12-29T08:06:21;11.00;99.90
22781;DHT22;11557;50.884;4.322;2022-12-29T08:08:47;11.00;99.90
22781;DHT22;11557;50.884;4.322;2022-12-29T08:11:13;11.00;99.90
22781;DHT22;11557;50.884;4.322;2022-12-29T08:13:39;11.00;99.90
22781;DHT22;11557;50.884;4.322;2022-12-29T08:16:04;11.00;99.90
22781;DHT22;11557;50.884;4.322;2022-12-29T08:18:31;11.10;99.90
22781;DHT22;11557;50.884;4.322;2022-12-29T08:21:02;11.10;99.90
22781;DHT22;11557;50.884;4.322;2022-12-29T08:23:28;11.10;99.90
22781;DHT22;11557;50.884;4.322;2022-12-29T08:26:02;11.10;99.90
22781;DHT22;11557;50.884;4.322;2022-12-29T08:28:28;11.10;99.90
22781;DHT22;11557;50.884;4.322;2022-12-29T08:30:57;11.10;99.90
22781;DHT22;11557;50.884;4.322;2022-12-29T08:33:23;11.10;99.90
22781;DHT22;11557;50.884;4.322;2022-12-29T08:35:49;11.10;99.90
22781;DHT22;11557;50.884;4.322;2022-12-29T08:38:14;11.10;99.90
22781;DHT22;11557;50.884;4.322;2022-12-29T08:40:40;11.10;99.90
22781;DHT22;11557;50.884;4.322;2022-12-29T08:43:06;11.10;99.90
22781;DHT22;11557;50.884;4.322;2022-12-29T08:45:32;11.10;99.90
22781;DHT22;11557;50.884;4.322;2022-12-29T08:47:58;11.40;99.90
22781;DHT22;11557;50.884;4.322;2022-12-29T08:50:23;11.00;99.90
22781;DHT22;11557;50.884;4.322;2022-12-29T08:52:49;11.20;99.90
22781;DHT22;11557;50.884;4.322;2022-12-29T08:55:14;10.90;99.90
22781;DHT22;11557;50.884;4.322;2022-12-29T08:57:40;10.90;99.90
22781;DHT22;11557;50.884;4.322;2022-12-29T09:00:07;10.80;99.90
22781;DHT22;11557;50.884;4.322;2022-12-29T09:02:33;10.90;99.90
22781;DHT22;11557;50.884;4.322;2022-12-29T09:04:59;10.80;99.90
22781;DHT22;11557;50.884;4.322;2022-12-29T09:07:25;10.90;99.90
22781;DHT22;11557;50.884;4.322;2022-12-29T09:09:51;11.00;99.90
22781;DHT22;11557;50.884;4.322;2022-12-29T09:12:17;10.90;99.90
22781;DHT22;11557;50.884;4.322;2022-12-29T09:14:45;10.80;99.90
22781;DHT22;11557;50.884;4.322;2022-12-29T09:17:11;10.80;99.90
22781;DHT22;11557;50.884;4.322;2022-12-29T09:19:55;10.70;99.90
22781;DHT22;11557;50.884;4.322;2022-12-29T09:22:21;10.60;99.90
22781;DHT22;11557;50.884;4.322;2022-12-29T09:24:46;10.60;99.90
22781;DHT22;11557;50.884;4.322;2022-12-29T09:27:12;10.60;99.90
22781;DHT22;11557;50.884;4.322;2022-12-29T09:29:38;10.60;99.90
22781;DHT22;11557;50.884;4.322;2022-12-29T09:32:03;10.50;99.90
22781;DHT22;11557;50.884;4.322;2022-12-29T09:34:29;10.40;99.90
22781;DHT22;11557;50.884;4.322;2022-12-29T09:36:55;10.40;99.90
22781;DHT22;11557;50.884;4.322;2022-12-29T09:39:22;10.20;99.90
22781;DHT22;11557;50.884;4.322;2022-12-29T09:42:07;10.40;99.90
22781;DHT22;11557;50.884;4.322;2022-12-29T09:44:48;10.30;99.90
22781;DHT22;11557;50.884;4.322;2022-12-29T09:47:19;10.20;99.90
22781;DHT22;11557;50.884;4.322;2022-12-29T09:52:26;10.30;99.90
22781;DHT22;11557;50.884;4.322;2022-12-29T09:57:56;10.40;99.90
22781;DHT22;11557;50.884;4.322;2022-12-29T10:00:38;10.40;99.90
22781;DHT22;11557;50.884;4.322;2022-12-29T10:03:14;10.60;99.90
22781;DHT22;11557;50.884;4.322;2022-12-29T10:08:25;10.70;99.90
22781;DHT22;11557;50.884;4.322;2022-12-29T10:11:19;10.70;99.90
22781;DHT22;11557;50.884;4.322;2022-12-29T10:25:12;10.90;99.90
22781;DHT22;11557;50.884;4.322;2022-12-29T10:27:40;10.90;99.90
22781;DHT22;11557;50.884;4.322;2022-12-29T10:30:12;11.00;99.90
22781;DHT22;11557;50.884;4.322;2022-12-29T10:37:55;11.00;99.90
22781;DHT22;11557;50.884;4.322;2022-12-29T10:40:36;11.10;99.90
22781;DHT22;11557;50.884;4.322;2022-12-29T10:43:20;11.20;99.90
22781;DHT22;11557;50.884;4.322;2022-12-29T10:45:47;11.20;99.90
22781;DHT22;11557;50.884;4.322;2022-12-29T10:48:20;11.40;99.90
22781;DHT22;11557;50.884;4.322;2022-12-29T10:50:48;11.40;99.90
22781;DHT22;11557;50.884;4.322;2022-12-29T10:53:22;11.40;99.90
22781;DHT22;11557;50.884;4.322;2022-12-29T10:55:50;11.40;99.90
22781;DHT22;11557;50.884;4.322;2022-12-29T10:58:17;11.50;99.90
22781;DHT22;11557;50.884;4.322;2022-12-29T11:00:51;11.50;99.90
22781;DHT22;11557;50.884;4.322;2022-12-29T11:06:26;11.70;99.90
22781;DHT22;11557;50.884;4.322;2022-12-29T11:11:24;11.60;99.90
22781;DHT22;11557;50.884;4.322;2022-12-29T11:13:57;11.60;99.90
22781;DHT22;11557;50.884;4.322;2022-12-29T11:16:34;11.60;99.90
22781;DHT22;11557;50.884;4.322;2022-12-29T11:19:01;11.60;99.90
22781;DHT22;11557;50.884;4.322;2022-12-29T11:24:01;11.70;99.90
22781;DHT22;11557;50.884;4.322;2022-12-29T11:26:28;11.70;99.90
22781;DHT22;11557;50.884;4.322;2022-12-29T11:31:51;11.80;99.90
22781;DHT22;11557;50.884;4.322;2022-12-29T11:34:22;11.90;99.90
22781;DHT22;11557;50.884;4.322;2022-12-29T11:36:50;11.60;99.90
22781;DHT22;11557;50.884;4.322;2022-12-29T11:42:14;11.40;99.90
22781;DHT22;11557;50.884;4.322;2022-12-29T11:44:46;11.50;99.90
22781;DHT22;11557;50.884;4.322;2022-12-29T11:47:26;11.50;99.90
22781;DHT22;11557;50.884;4.322;2022-12-29T11:49:56;11.50;99.90
22781;DHT22;11557;50.884;4.322;2022-12-29T11:52:27;11.50;99.90
22781;DHT22;11557;50.884;4.322;2022-12-29T11:54:54;11.30;99.90
22781;DHT22;11557;50.884;4.322;2022-12-29T11:57:22;11.10;99.90
22781;DHT22;11557;50.884;4.322;2022-12-29T11:59:50;11.10;99.90
22781;DHT22;11557;50.884;4.322;2022-12-29T12:03:07;11.40;99.90
22781;DHT22;11557;50.884;4.322;2022-12-29T12:05:46;11.30;99.90
22781;DHT22;11557;50.884;4.322;2022-12-29T12:08:39;11.20;99.90
22781;DHT22;11557;50.884;4.322;2022-12-29T12:11:12;11.20;99.90
22781;DHT22;11557;50.884;4.322;2022-12-29T12:13:55;11.20;99.90
22781;DHT22;11557;50.884;4.322;2022-12-29T12:16:28;11.30;99.90
22781;DHT22;11557;50.884;4.322;2022-12-29T12:19:14;11.20;99.90
22781;DHT22;11557;50.884;4.322;2022-12-29T12:21:47;11.10;99.90
22781;DHT22;11557;50.884;4.322;2022-12-29T12:24:36;11.20;99.90
22781;DHT22;11557;50.884;4.322;2022-12-29T12:30:33;10.90;99.90
22781;DHT22;11557;50.884;4.322;2022-12-29T12:32:55;10.90;99.90
22781;DHT22;11557;50.884;4.322;2022-12-29T12:35:44;11.00;99.90
22781;DHT22;11557;50.884;4.322;2022-12-29T12:43:43;11.00;99.90
22781;DHT22;11557;50.884;4.322;2022-12-29T12:52:14;11.30;99.90
22781;DHT22;11557;50.884;4.322;2022-12-29T12:55:13;11.20;99.90
22781;DHT22;11557;50.884;4.322;2022-12-29T13:00:24;11.30;99.90
22781;DHT22;11557;50.884;4.322;2022-12-29T13:19:32;11.10;99.90
22781;DHT22;11557;50.884;4.322;2022-12-29T13:24:58;11.10;99.90
22781;DHT22;11557;50.884;4.322;2022-12-29T13:35:19;11.50;99.90
22781;DHT22;11557;50.884;4.322;2022-12-29T13:37:56;11.50;99.90
22781;DHT22;11557;50.884;4.322;2022-12-29T13:40:32;11.30;99.90
22781;DHT22;11557;50.884;4.322;2022-12-29T13:43:00;11.10;99.90
22781;DHT22;11557;50.884;4.322;2022-12-29T13:45:30;11.10;99.90
22781;DHT22;11557;50.884;4.322;2022-12-29T13:50:33;11.30;99.90
22781;DHT22;11557;50.884;4.322;2022-12-29T14:02:07;11.10;99.90
22781;DHT22;11557;50.884;4.322;2022-12-29T14:04:55;11.20;99.90
22781;DHT22;11557;50.884;4.322;2022-12-29T14:07:21;11.20;99.90
22781;DHT22;11557;50.884;4.322;2022-12-29T14:09:50;11.20;99.90
22781;DHT22;11557;50.884;4.322;2022-12-29T14:12:40;11.20;99.90
22781;DHT22;11557;50.884;4.322;2022-12-29T14:17:37;11.20;99.90
22781;DHT22;11557;50.884;4.322;2022-12-29T14:20:04;11.20;99.90
22781;DHT22;11557;50.884;4.322;2022-12-29T14:22:31;11.20;99.90
22781;DHT22;11557;50.884;4.322;2022-12-29T14:24:57;11.20;99.90
22781;DHT22;11557;50.884;4.322;2022-12-29T14:27:42;11.40;99.90
22781;DHT22;11557;50.884;4.322;2022-12-29T14:30:50;11.00;99.90
22781;DHT22;11557;50.884;4.322;2022-12-29T14:33:17;10.60;99.90
22781;DHT22;11557;50.884;4.322;2022-12-29T14:35:44;10.20;99.90
22781;DHT22;11557;50.884;4.322;2022-12-29T14:38:26;9.80;99.90
22781;DHT22;11557;50.884;4.322;2022-12-29T14:40:52;9.50;99.90
22781;DHT22;11557;50.884;4.322;2022-12-29T14:43:38;9.50;99.90
22781;DHT22;11557;50.884;4.322;2022-12-29T14:46:07;9.30;99.90
22781;DHT22;11557;50.884;4.322;2022-12-29T14:48:39;9.20;99.90
22781;DHT22;11557;50.884;4.322;2022-12-29T14:51:18;9.10;99.90
22781;DHT22;11557;50.884;4.322;2022-12-29T14:53:50;9.00;99.90
22781;DHT22;11557;50.884;4.322;2022-12-29T14:56:18;9.10;99.90
22781;DHT22;11557;50.884;4.322;2022-12-29T14:58:55;8.90;99.90
22781;DHT22;11557;50.884;4.322;2022-12-29T15:04:03;9.00;99.90
22781;DHT22;11557;50.884;4.322;2022-12-29T15:06:30;9.00;99.90
22781;DHT22;11557;50.884;4.322;2022-12-29T15:09:00;10.20;99.90
22781;DHT22;11557;50.884;4.322;2022-12-29T15:14:23;9.80;99.90
22781;DHT22;11557;50.884;4.322;2022-12-29T15:16:49;8.80;99.90
22781;DHT22;11557;50.884;4.322;2022-12-29T15:19:26;8.80;99.90
22781;DHT22;11557;50.884;4.322;2022-12-29T15:21:55;9.30;99.90
22781;DHT22;11557;50.884;4.322;2022-12-29T15:24:22;9.80;99.90
22781;DHT22;11557;50.884;4.322;2022-12-29T15:26:50;8.80;99.90
22781;DHT22;11557;50.884;4.322;2022-12-29T15:29:39;8.80;99.90
22781;DHT22;11557;50.884;4.322;2022-12-29T15:32:22;8.80;99.90
22781;DHT22;11557;50.884;4.322;2022-12-29T15:34:54;10.00;99.90
22781;DHT22;11557;50.884;4.322;2022-12-29T15:37:26;8.60;99.90
22781;DHT22;11557;50.884;4.322;2022-12-29T15:39:54;8.80;99.90
22781;DHT22;11557;50.884;4.322;2022-12-29T15:45:14;8.90;99.90
22781;DHT22;11557;50.884;4.322;2022-12-29T15:47:42;9.90;99.90
22781;DHT22;11557;50.884;4.322;2022-12-29T15:50:22;9.50;99.90
22781;DHT22;11557;50.884;4.322;2022-12-29T15:52:49;8.90;99.90
22781;DHT22;11557;50.884;4.322;2022-12-29T15:55:31;9.60;99.90
22781;DHT22;11557;50.884;4.322;2022-12-29T15:58:00;8.90;99.90
22781;DHT22;11557;50.884;4.322;2022-12-29T16:00:28;9.00;99.90
22781;DHT22;11557;50.884;4.322;2022-12-29T16:02:55;8.90;99.90
22781;DHT22;11557;50.884;4.322;2022-12-29T16:05:22;8.80;99.90
22781;DHT22;11557;50.884;4.322;2022-12-29T16:07:59;8.80;99.90
22781;DHT22;11557;50.884;4.322;2022-12-29T16:12:54;8.90;99.90
22781;DHT22;11557;50.884;4.322;2022-12-29T16:15:20;9.00;99.90
22781;DHT22;11557;50.884;4.322;2022-12-29T16:17:48;9.10;99.90
22781;DHT22;11557;50.884;4.322;2022-12-29T16:20:21;9.10;99.90
22781;DHT22;11557;50.884;4.322;2022-12-29T16:22:53;9.20;99.90
22781;DHT22;11557;50.884;4.322;2022-12-29T16:25:32;9.40;99.90
22781;DHT22;11557;50.884;4.322;2022-12-29T16:28:01;9.20;99.90
22781;DHT22;11557;50.884;4.322;2022-12-29T16:30:32;9.30;99.90
22781;DHT22;11557;50.884;4.322;2022-12-29T16:33:04;9.70;99.90
22781;DHT22;11557;50.884;4.322;2022-12-29T16:35:45;9.40;99.90
22781;DHT22;11557;50.884;4.322;2022-12-29T16:38:15;9.40;99.90
22781;DHT22;11557;50.884;4.322;2022-12-29T16:41:01;9.30;99.90
22781;DHT22;11557;50.884;4.322;2022-12-29T16:43:34;9.20;99.90
22781;DHT22;11557;50.884;4.322;2022-12-29T16:48:31;10.10;99.90
22781;DHT22;11557;50.884;4.322;2022-12-29T16:51:34;9.30;99.90
22781;DHT22;11557;50.884;4.322;2022-12-29T16:54:00;9.20;99.90
22781;DHT22;11557;50.884;4.322;2022-12-29T16:56:29;9.10;99.90
22781;DHT22;11557;50.884;4.322;2022-12-29T16:59:08;9.90;99.90
22781;DHT22;11557;50.884;4.322;2022-12-29T17:01:38;9.00;99.90
22781;DHT22;11557;50.884;4.322;2022-12-29T17:04:12;9.00;99.90
22781;DHT22;11557;50.884;4.322;2022-12-29T17:06:38;9.80;99.90
22781;DHT22;11557;50.884;4.322;2022-12-29T17:09:24;9.20;99.90
22781;DHT22;11557;50.884;4.322;2022-12-29T17:11:52;9.10;99.90
22781;DHT22;11557;50.884;4.322;2022-12-29T17:19:38;9.10;99.90
22781;DHT22;11557;50.884;4.322;2022-12-29T17:22:17;9.10;99.90
22781;DHT22;11557;50.884;4.322;2022-12-29T17:24:43;9.30;99.90
22781;DHT22;11557;50.884;4.322;2022-12-29T17:27:24;10.20;99.90
22781;DHT22;11557;50.884;4.322;2022-12-29T17:29:52;9.10;99.90
22781;DHT22;11557;50.884;4.322;2022-12-29T17:32:18;9.20;99.90
22781;DHT22;11557;50.884;4.322;2022-12-29T17:34:43;9.10;99.90
22781;DHT22;11557;50.884;4.322;2022-12-29T17:39:49;9.00;99.90
22781;DHT22;11557;50.884;4.322;2022-12-29T17:42:16;9.10;99.90
22781;DHT22;11557;50.884;4.322;2022-12-29T17:44:42;10.00;99.90
22781;DHT22;11557;50.884;4.322;2022-12-29T17:47:11;9.00;99.90
22781;DHT22;11557;50.884;4.322;2022-12-29T17:49:37;9.20;99.90
22781;DHT22;11557;50.884;4.322;2022-12-29T17:52:03;9.00;99.90
22781;DHT22;11557;50.884;4.322;2022-12-29T17:54:30;9.10;99.90
22781;DHT22;11557;50.884;4.322;2022-12-29T17:56:56;9.60;99.90
22781;DHT22;11557;50.884;4.322;2022-12-29T17:59:22;9.60;99.90
22781;DHT22;11557;50.884;4.322;2022-12-29T18:01:48;9.30;99.90
22781;DHT22;11557;50.884;4.322;2022-12-29T18:04:16;9.60;99.90
22781;DHT22;11557;50.884;4.322;2022-12-29T18:06:42;9.70;99.90
22781;DHT22;11557;50.884;4.322;2022-12-29T18:09:09;8.90;99.90
22781;DHT22;11557;50.884;4.322;2022-12-29T18:11:37;9.00;99.90
22781;DHT22;11557;50.884;4.322;2022-12-29T18:14:07;9.00;99.90
22781;DHT22;11557;50.884;4.322;2022-12-29T18:16:35;10.10;99.90
22781;DHT22;11557;50.884;4.322;2022-12-29T18:19:01;9.00;99.90
22781;DHT22;11557;50.884;4.322;2022-12-29T18:21:26;9.20;99.90
22781;DHT22;11557;50.884;4.322;2022-12-29T18:23:52;9.00;99.90
22781;DHT22;11557;50.884;4.322;2022-12-29T18:26:23;9.10;99.90
22781;DHT22;11557;50.884;4.322;2022-12-29T18:28:49;8.90;99.90